Piera — 9HA3682 — position and weather

sailwx.info

Track history (hours):
 
Tides and Currents Weather Stations Pressure Air Temp Water Temp Dewpoint Dewpoint Depression Visibility Wind Speed Wind Dir Waves Ship Positions

Piera

Last reported at 2017-Sep-17 06:05 UTC. Time now 2017-Sep-21 12:19 UTC.
Position N 36°21' W 027°46'.

Length 230 m; draft 9.4 m.

Type: Ship. MMSI: 229872000.

Date/timePositionNaut miles runAvg speedWind from/ knotsBaromVisibWave heightAir tempDewpointWater temp
2017-Sep-17 06:05N 36°21' W 027°46'411.9
2017-Sep-17 05:46N 36°21' W 027°41'911.6
2017-Sep-17 05:02N 36°21' W 027°31'112.4
2017-Sep-17 04:58N 36°21' W 027°30'4811.8
2017-Sep-17 00:56N 36°20' W 026°31'511.8
2017-Sep-17 00:31N 36°20' W 026°25'611.7
2017-Sep-17 00:00N 36°19' W 026°17'611.8
2017-Sep-16 23:30N 36°19' W 026°10'611.8
2017-Sep-16 23:01N 36°19' W 026°03'611.6
2017-Sep-16 22:30N 36°19' W 025°55'611.9
2017-Sep-16 22:00N 36°19' W 025°48'611.9
2017-Sep-16 21:30N 36°19' W 025°41'611.9
2017-Sep-16 21:00N 36°19' W 025°33'611.8
2017-Sep-16 20:30N 36°18' W 025°26'611.8
2017-Sep-16 20:00N 36°18' W 025°19'611.7
2017-Sep-16 19:30N 36°18' W 025°11'612.2
2017-Sep-16 19:00N 36°18' W 025°04'612.2
2017-Sep-16 18:30N 36°18' W 024°56'612.1
2017-Sep-16 18:00N 36°18' W 024°49'611.7
2017-Sep-16 17:30N 36°18' W 024°41'611.7
2017-Sep-16 17:00N 36°18' W 024°34'611.7
2017-Sep-16 16:30N 36°18' W 024°27'611.5
2017-Sep-16 16:00N 36°17' W 024°20'611.7
2017-Sep-16 15:30N 36°17' W 024°13'611.8
2017-Sep-16 15:00N 36°17' W 024°05'612.1
2017-Sep-16 14:30N 36°17' W 023°58'612.0
2017-Sep-16 14:00N 36°17' W 023°50'612.0
2017-Sep-16 13:30N 36°16' W 023°43'611.9
2017-Sep-16 13:01N 36°16' W 023°36'612.0
2017-Sep-16 12:30N 36°16' W 023°28'38511.9
2017-Sep-15 04:11N 36°07' W 015°31'212.4
2017-Sep-15 04:00N 36°07' W 015°29'7812.4
2017-Sep-14 21:41N 36°06' W 013°52'1712.1
2017-Sep-14 20:16N 36°05' W 013°30'312.1
2017-Sep-14 19:59N 36°05' W 013°26'611.9
2017-Sep-14 19:27N 36°05' W 013°18'511.9
2017-Sep-14 19:00N 36°05' W 013°12'612.1
2017-Sep-14 18:31N 36°05' W 013°05'812.2
2017-Sep-14 17:51N 36°05' W 012°54'411.7
2017-Sep-14 17:31N 36°05' W 012°50'612.0
2017-Sep-14 17:01N 36°04' W 012°42'612.2
2017-Sep-14 16:29N 36°04' W 012°34'712.2
2017-Sep-14 15:55N 36°04' W 012°26'612.0
2017-Sep-14 15:25N 36°04' W 012°18'612.0
2017-Sep-14 14:56N 36°04' W 012°11'3412.2
2017-Sep-14 12:10N 36°03' W 011°29'212.1
2017-Sep-14 12:00N 36°03' W 011°27'712.0
2017-Sep-14 11:25N 36°03' W 011°18'712.0
2017-Sep-14 10:49N 36°03' W 011°09'412.3
2017-Sep-14 10:30N 36°03' W 011°04'612.2
2017-Sep-14 10:00N 36°02' W 010°57'712.3
2017-Sep-14 09:27N 36°02' W 010°49'912.1
2017-Sep-14 08:40N 36°02' W 010°37'312.3
2017-Sep-14 08:24N 36°02' W 010°33'512.2
2017-Sep-14 08:00N 36°02' W 010°27'612.1
2017-Sep-14 07:31N 36°02' W 010°19'612.0
2017-Sep-14 07:01N 36°02' W 010°12'612.0
2017-Sep-14 06:30N 36°01' W 010°04'612.0
2017-Sep-14 05:59N 36°01' W 009°57'611.8
2017-Sep-14 05:28N 36°01' W 009°49'611.8
2017-Sep-14 04:59N 36°01' W 009°42'511.7
2017-Sep-14 04:31N 36°01' W 009°35'611.7
2017-Sep-14 04:00N 36°01' W 009°28'611.5
2017-Sep-14 03:31N 36°01' W 009°21'611.7
2017-Sep-14 03:00N 36°01' W 009°14'611.7
2017-Sep-14 02:27N 36°00' W 009°06'511.1
2017-Sep-14 02:00N 36°00' W 008°59'511.0
2017-Sep-14 01:31N 36°00' W 008°53'611.3
2017-Sep-14 01:01N 36°00' W 008°46'611.4
2017-Sep-14 00:30N 35°60' W 008°39'611.5
2017-Sep-14 00:00N 35°60' W 008°32'612.0
2017-Sep-13 23:29N 35°60' W 008°24'611.9
2017-Sep-13 23:00N 35°60' W 008°17'611.9
2017-Sep-13 22:31N 35°59' W 008°10'711.9
2017-Sep-13 21:54N 35°59' W 008°00'611.9
2017-Sep-13 21:23N 35°59' W 007°53'611.7
2017-Sep-13 20:51N 35°59' W 007°45'411.8
2017-Sep-13 20:29N 35°59' W 007°40'712.3
2017-Sep-13 19:57N 35°59' W 007°32'612.4
2017-Sep-13 19:30N 35°59' W 007°25'612.6
2017-Sep-13 19:00N 35°58' W 007°17'612.8
2017-Sep-13 18:30N 35°58' W 007°09'612.5
2017-Sep-13 18:00N 35°58' W 007°02'612.7
2017-Sep-13 17:30N 35°58' W 006°54'612.4
2017-Sep-13 17:00N 35°58' W 006°46'712.0
2017-Sep-13 16:27N 35°57' W 006°38'611.9
2017-Sep-13 15:59N 35°57' W 006°31'712.0
2017-Sep-13 15:26N 35°57' W 006°23'712.5
2017-Sep-13 14:51N 35°57' W 006°14'712.2
2017-Sep-13 14:19N 35°57' W 006°06'512.6
2017-Sep-13 13:57N 35°57' W 006°00'1811.7
2017-Sep-13 12:23N 35°58' W 005°37'510.3
2017-Sep-13 11:54N 35°59' W 005°31'911.0
2017-Sep-13 11:04N 36°01' W 005°20'111.5
2017-Sep-13 11:01N 36°01' W 005°20'611.5
2017-Sep-13 10:31N 36°03' W 005°13'14 1.6
2017-Sep-13 01:26N 36°10' W 004°57'3 6.3
2017-Sep-13 01:01N 36°09' W 005°01'2 4.7
2017-Sep-13 00:30N 36°10' W 005°03'1 0.9
2017-Sep-12 23:58N 36°10' W 005°03'0 0.9
2017-Sep-12 23:28N 36°11' W 005°03'1 1.2
2017-Sep-12 22:58N 36°11' W 005°03'1 2.2
2017-Sep-12 22:28N 36°12' W 005°04'4 9.2
2017-Sep-12 22:00N 36°16' W 005°01'3 3.4
2017-Sep-12 21:08N 36°18' W 004°59'0 0.9
2017-Sep-12 20:59N 36°18' W 004°59'1 1.2
2017-Sep-12 20:11N 36°17' W 004°59'0 1.3
2017-Sep-12 19:50N 36°17' W 004°59'1 1.7
2017-Sep-12 19:29N 36°16' W 004°59'1 1.8
2017-Sep-12 18:59N 36°15' W 004°60'1 1.4
2017-Sep-12 18:30N 36°15' W 004°60'1 2.9
2017-Sep-12 18:00N 36°14' W 005°01'510.0
2017-Sep-12 17:30N 36°12' W 005°07'612.8
2017-Sep-12 17:00N 36°09' W 005°14'4 7.9
2017-Sep-12 16:30N 36°07' W 005°18'0 0.2
2017-Sep-12 16:00N 36°07' W 005°18'0 0.5
2017-Sep-12 15:30N 36°07' W 005°18'3 6.6
2017-Sep-12 15:00N 36°09' W 005°15'4 7.3
2017-Sep-12 14:30N 36°10' W 005°10'4 8.6
2017-Sep-12 14:00N 36°11' W 005°05'3 0.5
2017-Sep-12 08:07N 36°13' W 005°03'0 0.3
2017-Sep-12 07:56N 36°13' W 005°03'0 0.2
2017-Sep-12 07:17N 36°13' W 005°03'0 0.1
2017-Sep-12 06:58N 36°13' W 005°03'0 0.1
2017-Sep-12 06:30N 36°13' W 005°03'0 0.3
2017-Sep-12 06:00N 36°13' W 005°03'0 0.3
2017-Sep-12 05:29N 36°13' W 005°03'0 0.1
2017-Sep-12 05:00N 36°13' W 005°03'0 0.3
2017-Sep-12 04:27N 36°13' W 005°03'0 0.6
2017-Sep-12 04:00N 36°12' W 005°02'0 0.9
2017-Sep-12 03:30N 36°12' W 005°02'0 0.6
2017-Sep-12 03:00N 36°12' W 005°02'0 0.6
2017-Sep-12 02:30N 36°12' W 005°02'0 0.6
2017-Sep-12 02:00N 36°11' W 005°02'2 3.1
2017-Sep-12 01:30N 36°11' W 005°04'4 7.5
2017-Sep-12 01:00N 36°10' W 005°08'4 8.0
2017-Sep-12 00:30N 36°09' W 005°13'1 1.4
2017-Sep-12 00:00N 36°08' W 005°12'0 0.9
2017-Sep-11 23:30N 36°08' W 005°11'0 0.9
2017-Sep-11 22:57N 36°08' W 005°11'0 0.7
2017-Sep-11 22:30N 36°08' W 005°11'0 0.5
2017-Sep-11 22:00N 36°08' W 005°10'0 0.5
2017-Sep-11 21:30N 36°08' W 005°10'0 0.5
2017-Sep-11 21:00N 36°08' W 005°10'0 0.5
2017-Sep-11 20:30N 36°09' W 005°10'1 1.5
2017-Sep-11 20:00N 36°08' W 005°11'4 7.0
2017-Sep-11 19:30N 36°07' W 005°15'5 9.3
2017-Sep-11 19:01N 36°05' W 005°20'3 5.3
2017-Sep-11 18:31N 36°07' W 005°22'0 0.5
2017-Sep-11 17:59N 36°07' W 005°22'0 0.1
2017-Sep-11 17:29N 36°07' W 005°22'0 0.0
2017-Sep-11 16:47N 36°07' W 005°22'0 0.4
2017-Sep-11 16:23N 36°07' W 005°22'0 0.2
2017-Sep-11 15:23N 36°07' W 005°22'0 0.2
2017-Sep-11 14:59N 36°07' W 005°22'0 0.0
2017-Sep-11 14:29N 36°07' W 005°22'0 0.0
2017-Sep-11 13:59N 36°07' W 005°22'0 0.1
2017-Sep-11 13:26N 36°07' W 005°22'0 0.0
2017-Sep-11 12:59N 36°07' W 005°22'0 0.1
2017-Sep-11 12:29N 36°07' W 005°22'0 0.4
2017-Sep-11 11:59N 36°07' W 005°22'0 0.2
2017-Sep-11 11:29N 36°07' W 005°22'0 0.1
2017-Sep-11 10:59N 36°07' W 005°22'0 0.0
2017-Sep-11 10:29N 36°07' W 005°22'0 0.0
2017-Sep-11 09:59N 36°07' W 005°22'0 0.0
2017-Sep-11 09:29N 36°07' W 005°22'0 0.0
2017-Sep-11 08:59N 36°07' W 005°22'0 0.0
2017-Sep-11 08:29N 36°07' W 005°22'0 0.0
2017-Sep-11 07:59N 36°07' W 005°22'0 0.0
2017-Sep-11 06:53N 36°07' W 005°22'0 0.0
2017-Sep-11 06:23N 36°07' W 005°22'0 0.0
2017-Sep-11 05:56N 36°07' W 005°22'0 0.1
2017-Sep-11 04:35N 36°07' W 005°22'0 0.1
2017-Sep-11 04:29N 36°07' W 005°22'0 0.1
2017-Sep-11 03:29N 36°07' W 005°22'0 0.2
2017-Sep-11 02:39N 36°07' W 005°22'0 0.4
2017-Sep-11 02:30N 36°07' W 005°22'2 3.9
2017-Sep-11 02:00N 36°05' W 005°21'2 3.0
2017-Sep-11 01:30N 36°05' W 005°19'2 4.9
2017-Sep-11 01:00N 36°06' W 005°17'0 0.6
2017-Sep-11 00:30N 36°06' W 005°17'2 4.8
2017-Sep-11 00:00N 36°05' W 005°15'5 9.3
2017-Sep-10 23:30N 36°05' W 005°09'611.3
2017-Sep-10 23:00N 36°05' W 005°02'611.0
2017-Sep-10 22:29N 36°06' W 004°55'510.6
2017-Sep-10 22:00N 36°06' W 004°48'710.8
2017-Sep-10 21:20N 36°08' W 004°40'27910.6
2017-Sep-09 18:58N 36°49' E 001°03'510.0
2017-Sep-09 18:30N 36°50' E 001°09'510.7
2017-Sep-09 18:00N 36°51' E 001°16'611.0
2017-Sep-09 17:30N 36°52' E 001°22'611.7
2017-Sep-09 17:00N 36°53' E 001°30'611.5
2017-Sep-09 16:30N 36°54' E 001°37'611.2
2017-Sep-09 16:00N 36°54' E 001°44'511.0
2017-Sep-09 15:30N 36°55' E 001°51'510.8
2017-Sep-09 15:00N 36°56' E 001°57'510.7
2017-Sep-09 14:30N 36°56' E 002°04'510.8
2017-Sep-09 14:00N 36°57' E 002°10'611.0
2017-Sep-09 13:30N 36°58' E 002°17'511.0
2017-Sep-09 13:00N 36°59' E 002°24'611.3
2017-Sep-09 12:30N 36°60' E 002°31'611.3
2017-Sep-09 12:00N 37°00' E 002°38'611.2
2017-Sep-09 11:30N 37°01' E 002°45'611.2
2017-Sep-09 11:00N 37°02' E 002°52'611.1
2017-Sep-09 10:30N 37°03' E 002°59'511.0
2017-Sep-09 10:00N 37°04' E 003°06'611.2
2017-Sep-09 09:30N 37°05' E 003°13'611.3
2017-Sep-09 09:00N 37°05' E 003°20'611.2
2017-Sep-09 08:28N 37°06' E 003°27'511.2
2017-Sep-09 08:00N 37°07' E 003°34'611.3
2017-Sep-09 07:30N 37°08' E 003°41'611.3
2017-Sep-09 07:00N 37°10' E 003°47'611.1
2017-Sep-09 06:29N 37°11' E 003°54'511.3
2017-Sep-09 06:00N 37°10' E 004°01'611.8
2017-Sep-09 05:30N 37°11' E 004°08'612.0
2017-Sep-09 05:00N 37°12' E 004°16'612.4
2017-Sep-09 04:30N 37°13' E 004°23'612.0
2017-Sep-09 04:00N 37°14' E 004°31'611.8
2017-Sep-09 03:30N 37°15' E 004°38'611.9
2017-Sep-09 03:00N 37°16' E 004°46'611.8
2017-Sep-09 02:30N 37°16' E 004°53'611.7
2017-Sep-09 02:00N 37°17' E 005°00'712.0
2017-Sep-09 01:26N 37°19' E 005°09'512.0
2017-Sep-09 01:00N 37°19' E 005°15'611.8
2017-Sep-09 00:30N 37°20' E 005°23'33911.6
2017-Sep-07 19:08N 37°04' E 012°28'311.8
2017-Sep-07 18:54N 37°03' E 012°31'511.7
2017-Sep-07 18:29N 37°01' E 012°37'611.9
2017-Sep-07 18:00N 36°59' E 012°44'612.0
2017-Sep-07 17:30N 36°57' E 012°51'612.0
2017-Sep-07 17:00N 36°55' E 012°58'612.1
2017-Sep-07 16:30N 36°53' E 013°05'612.0
2017-Sep-07 16:00N 36°52' E 013°12'611.9
2017-Sep-07 15:30N 36°50' E 013°19'611.8
2017-Sep-07 15:00N 36°48' E 013°26'611.7
2017-Sep-07 14:30N 36°46' E 013°33'611.6
2017-Sep-07 14:00N 36°44' E 013°40'611.4
2017-Sep-07 13:30N 36°42' E 013°47'611.3
2017-Sep-07 13:00N 36°40' E 013°53'611.2
2017-Sep-07 12:30N 36°38' E 014°00'611.3
2017-Sep-07 12:00N 36°37' E 014°07'611.5
2017-Sep-07 11:30N 36°35' E 014°13'611.6
2017-Sep-07 11:00N 36°33' E 014°20'611.6
2017-Sep-07 10:30N 36°31' E 014°27'611.5
2017-Sep-07 10:00N 36°29' E 014°34'611.3
2017-Sep-07 09:29N 36°27' E 014°41'511.2
2017-Sep-07 09:00N 36°25' E 014°47'611.1
2017-Sep-07 08:29N 36°24' E 014°54'511.2
2017-Sep-07 08:00N 36°22' E 015°00'611.3
2017-Sep-07 07:30N 36°20' E 015°07'611.4
2017-Sep-07 06:56N 36°19' E 015°15'511.7
2017-Sep-07 06:30N 36°17' E 015°21'  
Track history (hours):
 
Tides and Currents Weather Stations Pressure Air Temp Water Temp Dewpoint Dewpoint Depression Visibility Wind Speed Wind Dir Waves Ship Positions

Piera

Last reported at 2017-Sep-17 06:05 UTC. Time now 2017-Sep-21 12:19 UTC.
Position N 36°21' W 027°46'.

Length 230 m; draft 9.4 m.

Type: Ship. MMSI: 229872000.

Date/timePositionNaut miles runAvg speedWind from/ knotsBaromVisibWave heightAir tempDewpointWater temp
2017-Sep-17 06:05N 36°21' W 027°46'411.9
2017-Sep-17 05:46N 36°21' W 027°41'911.6
2017-Sep-17 05:02N 36°21' W 027°31'112.4
2017-Sep-17 04:58N 36°21' W 027°30'4811.8
2017-Sep-17 00:56N 36°20' W 026°31'511.8
2017-Sep-17 00:31N 36°20' W 026°25'611.7
2017-Sep-17 00:00N 36°19' W 026°17'611.8
2017-Sep-16 23:30N 36°19' W 026°10'611.8
2017-Sep-16 23:01N 36°19' W 026°03'611.6
2017-Sep-16 22:30N 36°19' W 025°55'611.9
2017-Sep-16 22:00N 36°19' W 025°48'611.9
2017-Sep-16 21:30N 36°19' W 025°41'611.9
2017-Sep-16 21:00N 36°19' W 025°33'611.8
2017-Sep-16 20:30N 36°18' W 025°26'611.8
2017-Sep-16 20:00N 36°18' W 025°19'611.7
2017-Sep-16 19:30N 36°18' W 025°11'612.2
2017-Sep-16 19:00N 36°18' W 025°04'612.2
2017-Sep-16 18:30N 36°18' W 024°56'612.1
2017-Sep-16 18:00N 36°18' W 024°49'611.7
2017-Sep-16 17:30N 36°18' W 024°41'611.7
2017-Sep-16 17:00N 36°18' W 024°34'611.7
2017-Sep-16 16:30N 36°18' W 024°27'611.5
2017-Sep-16 16:00N 36°17' W 024°20'611.7
2017-Sep-16 15:30N 36°17' W 024°13'611.8
2017-Sep-16 15:00N 36°17' W 024°05'612.1
2017-Sep-16 14:30N 36°17' W 023°58'612.0
2017-Sep-16 14:00N 36°17' W 023°50'612.0
2017-Sep-16 13:30N 36°16' W 023°43'611.9
2017-Sep-16 13:01N 36°16' W 023°36'612.0
2017-Sep-16 12:30N 36°16' W 023°28'38511.9
2017-Sep-15 04:11N 36°07' W 015°31'212.4
2017-Sep-15 04:00N 36°07' W 015°29'7812.4
2017-Sep-14 21:41N 36°06' W 013°52'1712.1
2017-Sep-14 20:16N 36°05' W 013°30'312.1
2017-Sep-14 19:59N 36°05' W 013°26'611.9
2017-Sep-14 19:27N 36°05' W 013°18'511.9
2017-Sep-14 19:00N 36°05' W 013°12'612.1
2017-Sep-14 18:31N 36°05' W 013°05'812.2
2017-Sep-14 17:51N 36°05' W 012°54'411.7
2017-Sep-14 17:31N 36°05' W 012°50'612.0
2017-Sep-14 17:01N 36°04' W 012°42'612.2
2017-Sep-14 16:29N 36°04' W 012°34'712.2
2017-Sep-14 15:55N 36°04' W 012°26'612.0
2017-Sep-14 15:25N 36°04' W 012°18'612.0
2017-Sep-14 14:56N 36°04' W 012°11'3412.2
2017-Sep-14 12:10N 36°03' W 011°29'212.1
2017-Sep-14 12:00N 36°03' W 011°27'712.0
2017-Sep-14 11:25N 36°03' W 011°18'712.0
2017-Sep-14 10:49N 36°03' W 011°09'412.3
2017-Sep-14 10:30N 36°03' W 011°04'612.2
2017-Sep-14 10:00N 36°02' W 010°57'712.3
2017-Sep-14 09:27N 36°02' W 010°49'912.1
2017-Sep-14 08:40N 36°02' W 010°37'312.3
2017-Sep-14 08:24N 36°02' W 010°33'512.2
2017-Sep-14 08:00N 36°02' W 010°27'612.1
2017-Sep-14 07:31N 36°02' W 010°19'612.0
2017-Sep-14 07:01N 36°02' W 010°12'612.0
2017-Sep-14 06:30N 36°01' W 010°04'612.0
2017-Sep-14 05:59N 36°01' W 009°57'611.8
2017-Sep-14 05:28N 36°01' W 009°49'611.8
2017-Sep-14 04:59N 36°01' W 009°42'511.7
2017-Sep-14 04:31N 36°01' W 009°35'611.7
2017-Sep-14 04:00N 36°01' W 009°28'611.5
2017-Sep-14 03:31N 36°01' W 009°21'611.7
2017-Sep-14 03:00N 36°01' W 009°14'611.7
2017-Sep-14 02:27N 36°00' W 009°06'511.1
2017-Sep-14 02:00N 36°00' W 008°59'511.0
2017-Sep-14 01:31N 36°00' W 008°53'611.3
2017-Sep-14 01:01N 36°00' W 008°46'611.4
2017-Sep-14 00:30N 35°60' W 008°39'611.5
2017-Sep-14 00:00N 35°60' W 008°32'612.0
2017-Sep-13 23:29N 35°60' W 008°24'611.9
2017-Sep-13 23:00N 35°60' W 008°17'611.9
2017-Sep-13 22:31N 35°59' W 008°10'711.9
2017-Sep-13 21:54N 35°59' W 008°00'611.9
2017-Sep-13 21:23N 35°59' W 007°53'611.7
2017-Sep-13 20:51N 35°59' W 007°45'411.8
2017-Sep-13 20:29N 35°59' W 007°40'712.3
2017-Sep-13 19:57N 35°59' W 007°32'612.4
2017-Sep-13 19:30N 35°59' W 007°25'612.6
2017-Sep-13 19:00N 35°58' W 007°17'612.8
2017-Sep-13 18:30N 35°58' W 007°09'612.5
2017-Sep-13 18:00N 35°58' W 007°02'612.7
2017-Sep-13 17:30N 35°58' W 006°54'612.4
2017-Sep-13 17:00N 35°58' W 006°46'712.0
2017-Sep-13 16:27N 35°57' W 006°38'611.9
2017-Sep-13 15:59N 35°57' W 006°31'712.0
2017-Sep-13 15:26N 35°57' W 006°23'712.5
2017-Sep-13 14:51N 35°57' W 006°14'712.2
2017-Sep-13 14:19N 35°57' W 006°06'512.6
2017-Sep-13 13:57N 35°57' W 006°00'1811.7
2017-Sep-13 12:23N 35°58' W 005°37'510.3
2017-Sep-13 11:54N 35°59' W 005°31'911.0
2017-Sep-13 11:04N 36°01' W 005°20'111.5
2017-Sep-13 11:01N 36°01' W 005°20'611.5
2017-Sep-13 10:31N 36°03' W 005°13'14 1.6
2017-Sep-13 01:26N 36°10' W 004°57'3 6.3
2017-Sep-13 01:01N 36°09' W 005°01'2 4.7
2017-Sep-13 00:30N 36°10' W 005°03'1 0.9
2017-Sep-12 23:58N 36°10' W 005°03'0 0.9
2017-Sep-12 23:28N 36°11' W 005°03'1 1.2
2017-Sep-12 22:58N 36°11' W 005°03'1 2.2
2017-Sep-12 22:28N 36°12' W 005°04'4 9.2
2017-Sep-12 22:00N 36°16' W 005°01'3 3.4
2017-Sep-12 21:08N 36°18' W 004°59'0 0.9
2017-Sep-12 20:59N 36°18' W 004°59'1 1.2
2017-Sep-12 20:11N 36°17' W 004°59'0 1.3
2017-Sep-12 19:50N 36°17' W 004°59'1 1.7
2017-Sep-12 19:29N 36°16' W 004°59'1 1.8
2017-Sep-12 18:59N 36°15' W 004°60'1 1.4
2017-Sep-12 18:30N 36°15' W 004°60'1 2.9
2017-Sep-12 18:00N 36°14' W 005°01'510.0
2017-Sep-12 17:30N 36°12' W 005°07'612.8
2017-Sep-12 17:00N 36°09' W 005°14'4 7.9
2017-Sep-12 16:30N 36°07' W 005°18'0 0.2
2017-Sep-12 16:00N 36°07' W 005°18'0 0.5
2017-Sep-12 15:30N 36°07' W 005°18'3 6.6
2017-Sep-12 15:00N 36°09' W 005°15'4 7.3
2017-Sep-12 14:30N 36°10' W 005°10'4 8.6
2017-Sep-12 14:00N 36°11' W 005°05'3 0.5
2017-Sep-12 08:07N 36°13' W 005°03'0 0.3
2017-Sep-12 07:56N 36°13' W 005°03'0 0.2
2017-Sep-12 07:17N 36°13' W 005°03'0 0.1
2017-Sep-12 06:58N 36°13' W 005°03'0 0.1
2017-Sep-12 06:30N 36°13' W 005°03'0 0.3
2017-Sep-12 06:00N 36°13' W 005°03'0 0.3
2017-Sep-12 05:29N 36°13' W 005°03'0 0.1
2017-Sep-12 05:00N 36°13' W 005°03'0 0.3
2017-Sep-12 04:27N 36°13' W 005°03'0 0.6
2017-Sep-12 04:00N 36°12' W 005°02'0 0.9
2017-Sep-12 03:30N 36°12' W 005°02'0 0.6
2017-Sep-12 03:00N 36°12' W 005°02'0 0.6
2017-Sep-12 02:30N 36°12' W 005°02'0 0.6
2017-Sep-12 02:00N 36°11' W 005°02'2 3.1
2017-Sep-12 01:30N 36°11' W 005°04'4 7.5
2017-Sep-12 01:00N 36°10' W 005°08'4 8.0
2017-Sep-12 00:30N 36°09' W 005°13'1 1.4
2017-Sep-12 00:00N 36°08' W 005°12'0 0.9
2017-Sep-11 23:30N 36°08' W 005°11'0 0.9
2017-Sep-11 22:57N 36°08' W 005°11'0 0.7
2017-Sep-11 22:30N 36°08' W 005°11'0 0.5
2017-Sep-11 22:00N 36°08' W 005°10'0 0.5
2017-Sep-11 21:30N 36°08' W 005°10'0 0.5
2017-Sep-11 21:00N 36°08' W 005°10'0 0.5
2017-Sep-11 20:30N 36°09' W 005°10'1 1.5
2017-Sep-11 20:00N 36°08' W 005°11'4 7.0
2017-Sep-11 19:30N 36°07' W 005°15'5 9.3
2017-Sep-11 19:01N 36°05' W 005°20'3 5.3
2017-Sep-11 18:31N 36°07' W 005°22'0 0.5
2017-Sep-11 17:59N 36°07' W 005°22'0 0.1
2017-Sep-11 17:29N 36°07' W 005°22'0 0.0
2017-Sep-11 16:47N 36°07' W 005°22'0 0.4
2017-Sep-11 16:23N 36°07' W 005°22'0 0.2
2017-Sep-11 15:23N 36°07' W 005°22'0 0.2
2017-Sep-11 14:59N 36°07' W 005°22'0 0.0
2017-Sep-11 14:29N 36°07' W 005°22'0 0.0
2017-Sep-11 13:59N 36°07' W 005°22'0 0.1
2017-Sep-11 13:26N 36°07' W 005°22'0 0.0
2017-Sep-11 12:59N 36°07' W 005°22'0 0.1
2017-Sep-11 12:29N 36°07' W 005°22'0 0.4
2017-Sep-11 11:59N 36°07' W 005°22'0 0.2
2017-Sep-11 11:29N 36°07' W 005°22'0 0.1
2017-Sep-11 10:59N 36°07' W 005°22'0 0.0
2017-Sep-11 10:29N 36°07' W 005°22'0 0.0
2017-Sep-11 09:59N 36°07' W 005°22'0 0.0
2017-Sep-11 09:29N 36°07' W 005°22'0 0.0
2017-Sep-11 08:59N 36°07' W 005°22'0 0.0
2017-Sep-11 08:29N 36°07' W 005°22'0 0.0
2017-Sep-11 07:59N 36°07' W 005°22'0 0.0
2017-Sep-11 06:53N 36°07' W 005°22'0 0.0
2017-Sep-11 06:23N 36°07' W 005°22'0 0.0
2017-Sep-11 05:56N 36°07' W 005°22'0 0.1
2017-Sep-11 04:35N 36°07' W 005°22'0 0.1
2017-Sep-11 04:29N 36°07' W 005°22'0 0.1
2017-Sep-11 03:29N 36°07' W 005°22'0 0.2
2017-Sep-11 02:39N 36°07' W 005°22'0 0.4
2017-Sep-11 02:30N 36°07' W 005°22'2 3.9
2017-Sep-11 02:00N 36°05' W 005°21'2 3.0
2017-Sep-11 01:30N 36°05' W 005°19'2 4.9
2017-Sep-11 01:00N 36°06' W 005°17'0 0.6
2017-Sep-11 00:30N 36°06' W 005°17'2 4.8
2017-Sep-11 00:00N 36°05' W 005°15'5 9.3
2017-Sep-10 23:30N 36°05' W 005°09'611.3
2017-Sep-10 23:00N 36°05' W 005°02'611.0
2017-Sep-10 22:29N 36°06' W 004°55'510.6
2017-Sep-10 22:00N 36°06' W 004°48'710.8
2017-Sep-10 21:20N 36°08' W 004°40'27910.6
2017-Sep-09 18:58N 36°49' E 001°03'510.0
2017-Sep-09 18:30N 36°50' E 001°09'510.7
2017-Sep-09 18:00N 36°51' E 001°16'611.0
2017-Sep-09 17:30N 36°52' E 001°22'611.7
2017-Sep-09 17:00N 36°53' E 001°30'611.5
2017-Sep-09 16:30N 36°54' E 001°37'611.2
2017-Sep-09 16:00N 36°54' E 001°44'511.0
2017-Sep-09 15:30N 36°55' E 001°51'510.8
2017-Sep-09 15:00N 36°56' E 001°57'510.7
2017-Sep-09 14:30N 36°56' E 002°04'510.8
2017-Sep-09 14:00N 36°57' E 002°10'611.0
2017-Sep-09 13:30N 36°58' E 002°17'511.0
2017-Sep-09 13:00N 36°59' E 002°24'611.3
2017-Sep-09 12:30N 36°60' E 002°31'611.3
2017-Sep-09 12:00N 37°00' E 002°38'611.2
2017-Sep-09 11:30N 37°01' E 002°45'611.2
2017-Sep-09 11:00N 37°02' E 002°52'611.1
2017-Sep-09 10:30N 37°03' E 002°59'511.0
2017-Sep-09 10:00N 37°04' E 003°06'611.2
2017-Sep-09 09:30N 37°05' E 003°13'611.3
2017-Sep-09 09:00N 37°05' E 003°20'611.2
2017-Sep-09 08:28N 37°06' E 003°27'511.2
2017-Sep-09 08:00N 37°07' E 003°34'611.3
2017-Sep-09 07:30N 37°08' E 003°41'611.3
2017-Sep-09 07:00N 37°10' E 003°47'611.1
2017-Sep-09 06:29N 37°11' E 003°54'511.3
2017-Sep-09 06:00N 37°10' E 004°01'611.8
2017-Sep-09 05:30N 37°11' E 004°08'612.0
2017-Sep-09 05:00N 37°12' E 004°16'612.4
2017-Sep-09 04:30N 37°13' E 004°23'612.0
2017-Sep-09 04:00N 37°14' E 004°31'611.8
2017-Sep-09 03:30N 37°15' E 004°38'611.9
2017-Sep-09 03:00N 37°16' E 004°46'611.8
2017-Sep-09 02:30N 37°16' E 004°53'611.7
2017-Sep-09 02:00N 37°17' E 005°00'712.0
2017-Sep-09 01:26N 37°19' E 005°09'512.0
2017-Sep-09 01:00N 37°19' E 005°15'611.8
2017-Sep-09 00:30N 37°20' E 005°23'33911.6
2017-Sep-07 19:08N 37°04' E 012°28'311.8
2017-Sep-07 18:54N 37°03' E 012°31'511.7
2017-Sep-07 18:29N 37°01' E 012°37'611.9
2017-Sep-07 18:00N 36°59' E 012°44'612.0
2017-Sep-07 17:30N 36°57' E 012°51'612.0
2017-Sep-07 17:00N 36°55' E 012°58'612.1
2017-Sep-07 16:30N 36°53' E 013°05'612.0
2017-Sep-07 16:00N 36°52' E 013°12'611.9
2017-Sep-07 15:30N 36°50' E 013°19'611.8
2017-Sep-07 15:00N 36°48' E 013°26'611.7
2017-Sep-07 14:30N 36°46' E 013°33'611.6
2017-Sep-07 14:00N 36°44' E 013°40'611.4
2017-Sep-07 13:30N 36°42' E 013°47'611.3
2017-Sep-07 13:00N 36°40' E 013°53'611.2
2017-Sep-07 12:30N 36°38' E 014°00'611.3
2017-Sep-07 12:00N 36°37' E 014°07'611.5
2017-Sep-07 11:30N 36°35' E 014°13'611.6
2017-Sep-07 11:00N 36°33' E 014°20'611.6
2017-Sep-07 10:30N 36°31' E 014°27'611.5
2017-Sep-07 10:00N 36°29' E 014°34'611.3
2017-Sep-07 09:29N 36°27' E 014°41'511.2
2017-Sep-07 09:00N 36°25' E 014°47'611.1
2017-Sep-07 08:29N 36°24' E 014°54'511.2
2017-Sep-07 08:00N 36°22' E 015°00'611.3
2017-Sep-07 07:30N 36°20' E 015°07'611.4
2017-Sep-07 06:56N 36°19' E 015°15'511.7
2017-Sep-07 06:30N 36°17' E 015°21'  

Dump ship's entire track history